Surry, Maine
Current Conditions -  °F | °C
As of 5:35 AM on Monday 22 Dec 2014 (Local Time) from KBHB Reporting Station
Overcast Overcast  
Wind Chill: 28°   Ceiling: 5500
Heat Index: 28°   Visibility: 10mi
Dew Point: 28°   Wind: 3mph
Humidity: 100%   Direction: 360°N
Pressure: 30.4"   Gusts: NA
Location:  44.5°N, 68.5°W
Report Text: KBHB 221035Z AUTO 36003KT 10SM FEW044 OVC055 M02/M02 A3040 RMK AO1
Loading
Personal Weather Stations






























Interactive Weather Map New forecast layout! Learn more

10-Day Weather Forecast

Advertisements
Track Severe Weather on mobile